sensor_id;sensor_type;location;lat;lon;timestamp;P1;durP1;ratioP1;P2;durP2;ratioP2
5117;SDS011;2578;51.622;7.046;2022-09-21T00:01:07;9.73;;;4.50;;
5117;SDS011;2578;51.622;7.046;2022-09-21T00:03:35;9.77;;;4.70;;
5117;SDS011;2578;51.622;7.046;2022-09-21T00:06:04;9.67;;;4.80;;
5117;SDS011;2578;51.622;7.046;2022-09-21T00:08:32;9.70;;;4.80;;
5117;SDS011;2578;51.622;7.046;2022-09-21T00:10:58;9.77;;;4.80;;
5117;SDS011;2578;51.622;7.046;2022-09-21T00:13:25;10.03;;;5.50;;
5117;SDS011;2578;51.622;7.046;2022-09-21T00:15:52;12.17;;;6.30;;
5117;SDS011;2578;51.622;7.046;2022-09-21T00:18:19;9.97;;;5.70;;
5117;SDS011;2578;51.622;7.046;2022-09-21T00:20:45;10.17;;;5.57;;
5117;SDS011;2578;51.622;7.046;2022-09-21T00:23:10;9.97;;;5.40;;
5117;SDS011;2578;51.622;7.046;2022-09-21T00:25:36;10.40;;;6.30;;
5117;SDS011;2578;51.622;7.046;2022-09-21T00:28:01;10.37;;;5.93;;
5117;SDS011;2578;51.622;7.046;2022-09-21T00:30:27;10.17;;;6.03;;
5117;SDS011;2578;51.622;7.046;2022-09-21T00:32:53;10.17;;;6.10;;
5117;SDS011;2578;51.622;7.046;2022-09-21T00:35:19;10.23;;;5.90;;
5117;SDS011;2578;51.622;7.046;2022-09-21T00:37:44;10.33;;;6.00;;
5117;SDS011;2578;51.622;7.046;2022-09-21T00:40:10;10.27;;;6.00;;
5117;SDS011;2578;51.622;7.046;2022-09-21T00:42:37;10.20;;;5.67;;
5117;SDS011;2578;51.622;7.046;2022-09-21T00:45:03;10.07;;;5.40;;
5117;SDS011;2578;51.622;7.046;2022-09-21T00:47:32;10.37;;;5.90;;
5117;SDS011;2578;51.622;7.046;2022-09-21T00:50:08;10.27;;;6.20;;
5117;SDS011;2578;51.622;7.046;2022-09-21T00:52:40;10.40;;;6.40;;
5117;SDS011;2578;51.622;7.046;2022-09-21T00:55:16;10.47;;;6.50;;
5117;SDS011;2578;51.622;7.046;2022-09-21T00:57:47;10.47;;;6.80;;
5117;SDS011;2578;51.622;7.046;2022-09-21T01:00:17;12.13;;;9.40;;
5117;SDS011;2578;51.622;7.046;2022-09-21T01:02:42;10.37;;;6.60;;
5117;SDS011;2578;51.622;7.046;2022-09-21T01:05:09;10.43;;;6.60;;
5117;SDS011;2578;51.622;7.046;2022-09-21T01:07:36;10.57;;;6.90;;
5117;SDS011;2578;51.622;7.046;2022-09-21T01:10:07;10.60;;;6.97;;
5117;SDS011;2578;51.622;7.046;2022-09-21T01:21:23;10.67;;;6.80;;
5117;SDS011;2578;51.622;7.046;2022-09-21T01:26:30;10.77;;;7.50;;
5117;SDS011;2578;51.622;7.046;2022-09-21T01:31:54;10.90;;;7.73;;
5117;SDS011;2578;51.622;7.046;2022-09-21T01:34:43;10.83;;;7.80;;
5117;SDS011;2578;51.622;7.046;2022-09-21T01:37:13;10.93;;;7.97;;
5117;SDS011;2578;51.622;7.046;2022-09-21T01:39:44;11.23;;;8.40;;
5117;SDS011;2578;51.622;7.046;2022-09-21T01:42:13;11.17;;;8.70;;
5117;SDS011;2578;51.622;7.046;2022-09-21T01:44:41;11.33;;;8.80;;
5117;SDS011;2578;51.622;7.046;2022-09-21T01:47:10;11.70;;;9.00;;
5117;SDS011;2578;51.622;7.046;2022-09-21T01:49:38;11.33;;;8.67;;
5117;SDS011;2578;51.622;7.046;2022-09-21T01:52:18;19.13;;;10.73;;
5117;SDS011;2578;51.622;7.046;2022-09-21T01:54:51;11.37;;;8.90;;
5117;SDS011;2578;51.622;7.046;2022-09-21T01:59:51;11.67;;;9.20;;
5117;SDS011;2578;51.622;7.046;2022-09-21T02:02:25;11.73;;;9.60;;
5117;SDS011;2578;51.622;7.046;2022-09-21T02:05:00;11.73;;;9.60;;
5117;SDS011;2578;51.622;7.046;2022-09-21T02:07:27;11.70;;;9.67;;
5117;SDS011;2578;51.622;7.046;2022-09-21T02:09:53;11.63;;;9.10;;
5117;SDS011;2578;51.622;7.046;2022-09-21T02:12:20;11.43;;;8.70;;
5117;SDS011;2578;51.622;7.046;2022-09-21T02:14:46;12.17;;;10.27;;
5117;SDS011;2578;51.622;7.046;2022-09-21T02:17:19;14.60;;;10.80;;
5117;SDS011;2578;51.622;7.046;2022-09-21T02:20:06;11.77;;;9.20;;
5117;SDS011;2578;51.622;7.046;2022-09-21T02:34:09;12.57;;;9.47;;
5117;SDS011;2578;51.622;7.046;2022-09-21T02:36:44;11.60;;;8.70;;
5117;SDS011;2578;51.622;7.046;2022-09-21T02:39:20;12.07;;;9.87;;
5117;SDS011;2578;51.622;7.046;2022-09-21T02:42:26;11.73;;;8.90;;
5117;SDS011;2578;51.622;7.046;2022-09-21T02:45:00;11.53;;;8.60;;
5117;SDS011;2578;51.622;7.046;2022-09-21T02:47:34;12.00;;;9.53;;
5117;SDS011;2578;51.622;7.046;2022-09-21T02:50:25;11.97;;;9.50;;
5117;SDS011;2578;51.622;7.046;2022-09-21T02:52:58;12.17;;;10.07;;
5117;SDS011;2578;51.622;7.046;2022-09-21T02:55:25;12.07;;;9.50;;
5117;SDS011;2578;51.622;7.046;2022-09-21T02:57:52;11.87;;;9.33;;
5117;SDS011;2578;51.622;7.046;2022-09-21T03:00:19;11.77;;;9.30;;
5117;SDS011;2578;51.622;7.046;2022-09-21T03:02:45;12.20;;;9.97;;
5117;SDS011;2578;51.622;7.046;2022-09-21T03:05:11;12.00;;;9.40;;
5117;SDS011;2578;51.622;7.046;2022-09-21T03:07:38;11.87;;;9.40;;
5117;SDS011;2578;51.622;7.046;2022-09-21T03:10:04;12.10;;;9.90;;
5117;SDS011;2578;51.622;7.046;2022-09-21T03:12:32;12.17;;;10.10;;
5117;SDS011;2578;51.622;7.046;2022-09-21T03:14:58;12.60;;;10.93;;
5117;SDS011;2578;51.622;7.046;2022-09-21T03:17:24;12.33;;;10.57;;
5117;SDS011;2578;51.622;7.046;2022-09-21T03:19:50;12.50;;;10.90;;
5117;SDS011;2578;51.622;7.046;2022-09-21T03:22:19;12.57;;;11.20;;
5117;SDS011;2578;51.622;7.046;2022-09-21T03:24:45;12.53;;;11.13;;
5117;SDS011;2578;51.622;7.046;2022-09-21T03:27:20;12.53;;;11.00;;
5117;SDS011;2578;51.622;7.046;2022-09-21T03:29:46;13.80;;;12.40;;
5117;SDS011;2578;51.622;7.046;2022-09-21T03:32:12;13.60;;;12.20;;
5117;SDS011;2578;51.622;7.046;2022-09-21T03:34:38;13.47;;;12.07;;
5117;SDS011;2578;51.622;7.046;2022-09-21T03:37:05;13.20;;;11.80;;
5117;SDS011;2578;51.622;7.046;2022-09-21T03:39:32;13.10;;;11.70;;
5117;SDS011;2578;51.622;7.046;2022-09-21T03:41:57;12.73;;;11.33;;
5117;SDS011;2578;51.622;7.046;2022-09-21T03:44:23;13.40;;;12.00;;
5117;SDS011;2578;51.622;7.046;2022-09-21T03:46:52;13.40;;;12.00;;
5117;SDS011;2578;51.622;7.046;2022-09-21T03:49:17;13.40;;;12.00;;
5117;SDS011;2578;51.622;7.046;2022-09-21T03:51:43;13.50;;;12.10;;
5117;SDS011;2578;51.622;7.046;2022-09-21T03:54:09;14.10;;;12.70;;
5117;SDS011;2578;51.622;7.046;2022-09-21T03:56:35;13.47;;;12.07;;
5117;SDS011;2578;51.622;7.046;2022-09-21T03:59:01;14.50;;;13.10;;
5117;SDS011;2578;51.622;7.046;2022-09-21T04:01:26;14.30;;;12.90;;
5117;SDS011;2578;51.622;7.046;2022-09-21T04:03:52;13.70;;;12.30;;
5117;SDS011;2578;51.622;7.046;2022-09-21T04:06:18;13.67;;;12.27;;
5117;SDS011;2578;51.622;7.046;2022-09-21T04:08:44;13.90;;;12.50;;
5117;SDS011;2578;51.622;7.046;2022-09-21T04:11:13;14.10;;;12.70;;
5117;SDS011;2578;51.622;7.046;2022-09-21T04:13:41;14.30;;;12.90;;
5117;SDS011;2578;51.622;7.046;2022-09-21T04:16:07;14.07;;;12.67;;
5117;SDS011;2578;51.622;7.046;2022-09-21T04:18:34;13.50;;;12.10;;
5117;SDS011;2578;51.622;7.046;2022-09-21T04:21:00;14.97;;;13.47;;
5117;SDS011;2578;51.622;7.046;2022-09-21T04:23:26;14.57;;;13.07;;
5117;SDS011;2578;51.622;7.046;2022-09-21T04:25:52;14.13;;;12.73;;
5117;SDS011;2578;51.622;7.046;2022-09-21T04:28:19;14.90;;;13.40;;
5117;SDS011;2578;51.622;7.046;2022-09-21T04:30:45;15.70;;;14.20;;
5117;SDS011;2578;51.622;7.046;2022-09-21T04:33:10;16.30;;;14.80;;
5117;SDS011;2578;51.622;7.046;2022-09-21T04:35:36;14.97;;;13.47;;
5117;SDS011;2578;51.622;7.046;2022-09-21T04:38:02;15.30;;;13.80;;
5117;SDS011;2578;51.622;7.046;2022-09-21T04:40:28;14.90;;;13.40;;
5117;SDS011;2578;51.622;7.046;2022-09-21T04:42:55;14.83;;;13.33;;
5117;SDS011;2578;51.622;7.046;2022-09-21T04:45:20;14.70;;;13.20;;
5117;SDS011;2578;51.622;7.046;2022-09-21T04:47:46;16.00;;;14.50;;
5117;SDS011;2578;51.622;7.046;2022-09-21T04:50:12;15.70;;;14.20;;
5117;SDS011;2578;51.622;7.046;2022-09-21T04:52:38;15.30;;;13.80;;
5117;SDS011;2578;51.622;7.046;2022-09-21T04:55:04;15.60;;;14.10;;
5117;SDS011;2578;51.622;7.046;2022-09-21T04:57:30;15.87;;;14.27;;
5117;SDS011;2578;51.622;7.046;2022-09-21T04:59:56;15.70;;;14.20;;
5117;SDS011;2578;51.622;7.046;2022-09-21T05:02:21;15.60;;;14.10;;
5117;SDS011;2578;51.622;7.046;2022-09-21T05:04:47;15.50;;;14.00;;
5117;SDS011;2578;51.622;7.046;2022-09-21T05:07:14;15.70;;;14.20;;
5117;SDS011;2578;51.622;7.046;2022-09-21T05:09:39;15.30;;;13.80;;
5117;SDS011;2578;51.622;7.046;2022-09-21T05:12:24;14.80;;;13.30;;
5117;SDS011;2578;51.622;7.046;2022-09-21T05:14:49;15.40;;;13.90;;
5117;SDS011;2578;51.622;7.046;2022-09-21T05:17:15;15.17;;;13.67;;
5117;SDS011;2578;51.622;7.046;2022-09-21T05:19:41;16.50;;;14.90;;
5117;SDS011;2578;51.622;7.046;2022-09-21T05:22:06;15.90;;;14.40;;
5117;SDS011;2578;51.622;7.046;2022-09-21T05:24:32;15.80;;;14.30;;
5117;SDS011;2578;51.622;7.046;2022-09-21T05:26:58;21.10;;;19.23;;
5117;SDS011;2578;51.622;7.046;2022-09-21T05:29:24;15.60;;;14.10;;
5117;SDS011;2578;51.622;7.046;2022-09-21T05:31:58;15.40;;;13.90;;
5117;SDS011;2578;51.622;7.046;2022-09-21T05:34:35;15.73;;;14.23;;
5117;SDS011;2578;51.622;7.046;2022-09-21T05:39:55;16.30;;;14.73;;
5117;SDS011;2578;51.622;7.046;2022-09-21T05:42:21;15.57;;;14.07;;
5117;SDS011;2578;51.622;7.046;2022-09-21T05:44:47;15.50;;;14.00;;
5117;SDS011;2578;51.622;7.046;2022-09-21T05:52:42;16.10;;;14.60;;
5117;SDS011;2578;51.622;7.046;2022-09-21T06:00:41;15.30;;;13.80;;
5117;SDS011;2578;51.622;7.046;2022-09-21T06:03:34;14.23;;;12.80;;
5117;SDS011;2578;51.622;7.046;2022-09-21T06:06:00;14.10;;;12.70;;
5117;SDS011;2578;51.622;7.046;2022-09-21T06:08:29;14.10;;;12.70;;
5117;SDS011;2578;51.622;7.046;2022-09-21T06:10:54;13.10;;;11.70;;
5117;SDS011;2578;51.622;7.046;2022-09-21T06:13:20;13.10;;;11.70;;
5117;SDS011;2578;51.622;7.046;2022-09-21T06:15:48;12.47;;;10.67;;
5117;SDS011;2578;51.622;7.046;2022-09-21T06:18:14;12.63;;;10.80;;
5117;SDS011;2578;51.622;7.046;2022-09-21T06:20:40;12.70;;;10.80;;
5117;SDS011;2578;51.622;7.046;2022-09-21T06:23:09;11.63;;;9.20;;
5117;SDS011;2578;51.622;7.046;2022-09-21T06:25:36;11.97;;;9.20;;
5117;SDS011;2578;51.622;7.046;2022-09-21T06:28:08;11.27;;;7.80;;
5117;SDS011;2578;51.622;7.046;2022-09-21T06:30:36;11.50;;;8.30;;
5117;SDS011;2578;51.622;7.046;2022-09-21T06:33:03;11.13;;;6.97;;
5117;SDS011;2578;51.622;7.046;2022-09-21T06:35:30;11.07;;;6.80;;
5117;SDS011;2578;51.622;7.046;2022-09-21T06:37:57;10.97;;;6.80;;
5117;SDS011;2578;51.622;7.046;2022-09-21T06:40:25;11.90;;;7.77;;
5117;SDS011;2578;51.622;7.046;2022-09-21T06:42:54;10.83;;;6.20;;
5117;SDS011;2578;51.622;7.046;2022-09-21T06:45:23;11.20;;;6.70;;
5117;SDS011;2578;51.622;7.046;2022-09-21T06:47:50;11.87;;;8.70;;
5117;SDS011;2578;51.622;7.046;2022-09-21T06:50:15;11.77;;;8.40;;
5117;SDS011;2578;51.622;7.046;2022-09-21T06:52:41;11.60;;;7.90;;
5117;SDS011;2578;51.622;7.046;2022-09-21T06:55:07;11.17;;;6.60;;
5117;SDS011;2578;51.622;7.046;2022-09-21T06:57:34;11.40;;;6.83;;
5117;SDS011;2578;51.622;7.046;2022-09-21T07:00:03;10.80;;;5.67;;
5117;SDS011;2578;51.622;7.046;2022-09-21T07:02:30;10.57;;;5.10;;
5117;SDS011;2578;51.622;7.046;2022-09-21T07:04:55;10.57;;;4.90;;
5117;SDS011;2578;51.622;7.046;2022-09-21T07:07:22;10.70;;;5.10;;
5117;SDS011;2578;51.622;7.046;2022-09-21T07:09:48;10.60;;;5.00;;
5117;SDS011;2578;51.622;7.046;2022-09-21T07:12:13;10.37;;;4.30;;
5117;SDS011;2578;51.622;7.046;2022-09-21T07:14:39;9.97;;;3.27;;
5117;SDS011;2578;51.622;7.046;2022-09-21T07:17:05;9.70;;;2.80;;
5117;SDS011;2578;51.622;7.046;2022-09-21T07:19:32;9.63;;;2.77;;
5117;SDS011;2578;51.622;7.046;2022-09-21T07:21:58;9.73;;;3.03;;
5117;SDS011;2578;51.622;7.046;2022-09-21T07:24:23;9.83;;;3.10;;
5117;SDS011;2578;51.622;7.046;2022-09-21T07:26:49;10.10;;;3.97;;
5117;SDS011;2578;51.622;7.046;2022-09-21T07:29:15;9.93;;;3.40;;
5117;SDS011;2578;51.622;7.046;2022-09-21T07:31:43;10.07;;;3.90;;
5117;SDS011;2578;51.622;7.046;2022-09-21T07:34:09;10.40;;;4.77;;
5117;SDS011;2578;51.622;7.046;2022-09-21T07:36:35;11.00;;;5.13;;
5117;SDS011;2578;51.622;7.046;2022-09-21T07:39:01;10.50;;;4.93;;
5117;SDS011;2578;51.622;7.046;2022-09-21T07:41:28;10.93;;;6.50;;
5117;SDS011;2578;51.622;7.046;2022-09-21T07:43:57;11.20;;;7.50;;
5117;SDS011;2578;51.622;7.046;2022-09-21T07:46:25;12.33;;;10.47;;
5117;SDS011;2578;51.622;7.046;2022-09-21T07:48:54;14.90;;;13.40;;
5117;SDS011;2578;51.622;7.046;2022-09-21T07:54:54;15.00;;;13.67;;
5117;SDS011;2578;51.622;7.046;2022-09-21T07:57:20;13.90;;;12.60;;
5117;SDS011;2578;51.622;7.046;2022-09-21T08:00:08;13.40;;;12.10;;
5117;SDS011;2578;51.622;7.046;2022-09-21T08:02:42;14.83;;;13.23;;
5117;SDS011;2578;51.622;7.046;2022-09-21T08:05:08;14.80;;;13.30;;
5117;SDS011;2578;51.622;7.046;2022-09-21T08:07:34;15.30;;;13.80;;
5117;SDS011;2578;51.622;7.046;2022-09-21T08:10:00;15.30;;;13.80;;
5117;SDS011;2578;51.622;7.046;2022-09-21T08:12:26;15.23;;;13.80;;
5117;SDS011;2578;51.622;7.046;2022-09-21T08:14:51;16.27;;;14.67;;
5117;SDS011;2578;51.622;7.046;2022-09-21T08:17:17;16.10;;;14.60;;
5117;SDS011;2578;51.622;7.046;2022-09-21T08:19:43;17.70;;;16.10;;
5117;SDS011;2578;51.622;7.046;2022-09-21T08:22:08;26.93;;;18.10;;
5117;SDS011;2578;51.622;7.046;2022-09-21T08:24:42;18.60;;;16.90;;
5117;SDS011;2578;51.622;7.046;2022-09-21T08:27:40;19.50;;;17.70;;
5117;SDS011;2578;51.622;7.046;2022-09-21T08:30:14;20.53;;;18.43;;
5117;SDS011;2578;51.622;7.046;2022-09-21T08:32:40;20.60;;;18.70;;
5117;SDS011;2578;51.622;7.046;2022-09-21T08:35:23;20.10;;;18.20;;
5117;SDS011;2578;51.622;7.046;2022-09-21T08:37:55;22.07;;;19.87;;
5117;SDS011;2578;51.622;7.046;2022-09-21T08:40:31;21.87;;;19.77;;
5117;SDS011;2578;51.622;7.046;2022-09-21T08:43:08;21.40;;;19.40;;
5117;SDS011;2578;51.622;7.046;2022-09-21T08:45:38;23.70;;;21.50;;
5117;SDS011;2578;51.622;7.046;2022-09-21T08:48:25;23.03;;;20.93;;
5117;SDS011;2578;51.622;7.046;2022-09-21T08:50:55;24.53;;;22.30;;
5117;SDS011;2578;51.622;7.046;2022-09-21T08:53:25;25.70;;;23.30;;
5117;SDS011;2578;51.622;7.046;2022-09-21T08:55:55;27.80;;;25.20;;
5117;SDS011;2578;51.622;7.046;2022-09-21T08:58:22;29.33;;;26.63;;
5117;SDS011;2578;51.622;7.046;2022-09-21T09:06:51;28.57;;;25.97;;
5117;SDS011;2578;51.622;7.046;2022-09-21T09:09:45;32.40;;;29.50;;
5117;SDS011;2578;51.622;7.046;2022-09-21T09:18:08;34.80;;;31.80;;
5117;SDS011;2578;51.622;7.046;2022-09-21T09:20:54;35.90;;;32.80;;
5117;SDS011;2578;51.622;7.046;2022-09-21T09:23:25;37.70;;;34.40;;
5117;SDS011;2578;51.622;7.046;2022-09-21T09:26:12;36.97;;;33.67;;
5117;SDS011;2578;51.622;7.046;2022-09-21T09:28:46;36.13;;;32.87;;
5117;SDS011;2578;51.622;7.046;2022-09-21T09:31:27;35.17;;;32.07;;
5117;SDS011;2578;51.622;7.046;2022-09-21T09:34:12;34.60;;;31.50;;
5117;SDS011;2578;51.622;7.046;2022-09-21T09:36:58;34.27;;;31.17;;
5117;SDS011;2578;51.622;7.046;2022-09-21T09:39:34;34.00;;;30.60;;
5117;SDS011;2578;51.622;7.046;2022-09-21T09:50:10;36.90;;;33.20;;
5117;SDS011;2578;51.622;7.046;2022-09-21T09:52:41;37.50;;;34.00;;
5117;SDS011;2578;51.622;7.046;2022-09-21T09:55:15;39.90;;;36.30;;
5117;SDS011;2578;51.622;7.046;2022-09-21T09:57:44;39.40;;;36.03;;
5117;SDS011;2578;51.622;7.046;2022-09-21T10:00:12;38.20;;;34.77;;
5117;SDS011;2578;51.622;7.046;2022-09-21T10:05:18;36.93;;;33.63;;
5117;SDS011;2578;51.622;7.046;2022-09-21T10:07:48;34.67;;;31.37;;
5117;SDS011;2578;51.622;7.046;2022-09-21T10:12:46;34.37;;;30.97;;
5117;SDS011;2578;51.622;7.046;2022-09-21T10:15:12;37.40;;;33.90;;
5117;SDS011;2578;51.622;7.046;2022-09-21T10:17:37;34.80;;;31.47;;
5117;SDS011;2578;51.622;7.046;2022-09-21T10:20:04;34.63;;;31.13;;
5117;SDS011;2578;51.622;7.046;2022-09-21T10:22:32;35.83;;;32.33;;
5117;SDS011;2578;51.622;7.046;2022-09-21T10:24:58;34.50;;;31.10;;
5117;SDS011;2578;51.622;7.046;2022-09-21T10:29:58;35.20;;;31.90;;
5117;SDS011;2578;51.622;7.046;2022-09-21T10:32:25;33.60;;;30.40;;
5117;SDS011;2578;51.622;7.046;2022-09-21T10:37:33;33.13;;;29.83;;
5117;SDS011;2578;51.622;7.046;2022-09-21T10:42:44;33.13;;;29.93;;
5117;SDS011;2578;51.622;7.046;2022-09-21T10:47:39;32.33;;;29.23;;
5117;SDS011;2578;51.622;7.046;2022-09-21T10:52:58;32.70;;;29.50;;
5117;SDS011;2578;51.622;7.046;2022-09-21T10:55:27;32.10;;;29.00;;
5117;SDS011;2578;51.622;7.046;2022-09-21T10:57:54;32.10;;;29.00;;
5117;SDS011;2578;51.622;7.046;2022-09-21T11:02:46;29.00;;;26.30;;
5117;SDS011;2578;51.622;7.046;2022-09-21T11:05:16;29.33;;;26.50;;
5117;SDS011;2578;51.622;7.046;2022-09-21T11:08:02;27.70;;;25.17;;
5117;SDS011;2578;51.622;7.046;2022-09-21T11:27:13;27.10;;;24.60;;
5117;SDS011;2578;51.622;7.046;2022-09-21T11:30:01;28.20;;;25.50;;
5117;SDS011;2578;51.622;7.046;2022-09-21T11:35:34;26.77;;;24.27;;
5117;SDS011;2578;51.622;7.046;2022-09-21T11:57:51;23.30;;;21.10;;
5117;SDS011;2578;51.622;7.046;2022-09-21T12:00:19;23.63;;;21.43;;
5117;SDS011;2578;51.622;7.046;2022-09-21T12:05:45;24.30;;;22.10;;
5117;SDS011;2578;51.622;7.046;2022-09-21T12:11:26;23.13;;;21.13;;
5117;SDS011;2578;51.622;7.046;2022-09-21T12:17:09;22.80;;;20.60;;
5117;SDS011;2578;51.622;7.046;2022-09-21T12:20:02;25.23;;;22.83;;
5117;SDS011;2578;51.622;7.046;2022-09-21T12:22:40;26.70;;;24.30;;
5117;SDS011;2578;51.622;7.046;2022-09-21T12:30:31;29.30;;;26.70;;
5117;SDS011;2578;51.622;7.046;2022-09-21T12:33:02;28.80;;;26.20;;
5117;SDS011;2578;51.622;7.046;2022-09-21T12:35:38;27.90;;;25.40;;
5117;SDS011;2578;51.622;7.046;2022-09-21T12:46:48;31.07;;;27.93;;
5117;SDS011;2578;51.622;7.046;2022-09-21T12:49:23;27.87;;;25.27;;
5117;SDS011;2578;51.622;7.046;2022-09-21T12:51:56;27.30;;;24.70;;
5117;SDS011;2578;51.622;7.046;2022-09-21T13:00:03;30.10;;;27.20;;
5117;SDS011;2578;51.622;7.046;2022-09-21T13:08:11;31.53;;;28.63;;
5117;SDS011;2578;51.622;7.046;2022-09-21T13:15:53;34.30;;;31.30;;
5117;SDS011;2578;51.622;7.046;2022-09-21T13:18:23;35.40;;;32.20;;
5117;SDS011;2578;51.622;7.046;2022-09-21T13:20:52;32.97;;;29.97;;
5117;SDS011;2578;51.622;7.046;2022-09-21T13:23:23;33.07;;;30.07;;
5117;SDS011;2578;51.622;7.046;2022-09-21T13:26:06;34.60;;;31.50;;
5117;SDS011;2578;51.622;7.046;2022-09-21T13:36:40;32.10;;;29.20;;
5117;SDS011;2578;51.622;7.046;2022-09-21T13:41:33;32.13;;;29.20;;
5117;SDS011;2578;51.622;7.046;2022-09-21T13:51:32;30.93;;;27.97;;
5117;SDS011;2578;51.622;7.046;2022-09-21T13:53:58;29.03;;;26.33;;
5117;SDS011;2578;51.622;7.046;2022-09-21T13:56:27;29.80;;;27.10;;
5117;SDS011;2578;51.622;7.046;2022-09-21T13:58:54;29.20;;;26.50;;
5117;SDS011;2578;51.622;7.046;2022-09-21T14:01:22;28.40;;;25.80;;
5117;SDS011;2578;51.622;7.046;2022-09-21T14:03:56;28.80;;;26.10;;
5117;SDS011;2578;51.622;7.046;2022-09-21T14:06:27;28.10;;;25.60;;
5117;SDS011;2578;51.622;7.046;2022-09-21T14:09:06;27.70;;;25.20;;
5117;SDS011;2578;51.622;7.046;2022-09-21T14:11:43;29.30;;;26.80;;
5117;SDS011;2578;51.622;7.046;2022-09-21T14:14:25;28.90;;;26.27;;
5117;SDS011;2578;51.622;7.046;2022-09-21T14:16:53;29.90;;;27.30;;
5117;SDS011;2578;51.622;7.046;2022-09-21T14:29:45;27.93;;;25.43;;
5117;SDS011;2578;51.622;7.046;2022-09-21T14:32:18;27.10;;;24.70;;
5117;SDS011;2578;51.622;7.046;2022-09-21T14:34:48;27.80;;;25.40;;
5117;SDS011;2578;51.622;7.046;2022-09-21T14:43:11;27.63;;;25.23;;
5117;SDS011;2578;51.622;7.046;2022-09-21T14:48:20;28.40;;;26.00;;
5117;SDS011;2578;51.622;7.046;2022-09-21T14:51:19;25.60;;;23.40;;
5117;SDS011;2578;51.622;7.046;2022-09-21T14:56:40;25.10;;;22.90;;
5117;SDS011;2578;51.622;7.046;2022-09-21T14:59:12;24.67;;;22.57;;
5117;SDS011;2578;51.622;7.046;2022-09-21T15:01:54;25.00;;;22.80;;
5117;SDS011;2578;51.622;7.046;2022-09-21T15:04:45;23.90;;;21.80;;
5117;SDS011;2578;51.622;7.046;2022-09-21T15:10:52;23.23;;;21.23;;
5117;SDS011;2578;51.622;7.046;2022-09-21T15:16:22;22.60;;;20.60;;
5117;SDS011;2578;51.622;7.046;2022-09-21T15:18:49;22.40;;;20.40;;
5117;SDS011;2578;51.622;7.046;2022-09-21T15:21:25;22.30;;;20.33;;
5117;SDS011;2578;51.622;7.046;2022-09-21T15:23:53;20.83;;;19.03;;
5117;SDS011;2578;51.622;7.046;2022-09-21T15:26:25;20.80;;;19.00;;
5117;SDS011;2578;51.622;7.046;2022-09-21T15:28:58;19.67;;;17.97;;
5117;SDS011;2578;51.622;7.046;2022-09-21T15:31:30;19.83;;;18.10;;
5117;SDS011;2578;51.622;7.046;2022-09-21T15:34:02;18.30;;;16.70;;
5117;SDS011;2578;51.622;7.046;2022-09-21T15:36:30;17.30;;;15.80;;
5117;SDS011;2578;51.622;7.046;2022-09-21T15:39:01;17.17;;;15.67;;
5117;SDS011;2578;51.622;7.046;2022-09-21T15:44:05;16.40;;;14.90;;
5117;SDS011;2578;51.622;7.046;2022-09-21T15:46:38;16.40;;;14.90;;
5117;SDS011;2578;51.622;7.046;2022-09-21T15:49:11;16.90;;;15.40;;
5117;SDS011;2578;51.622;7.046;2022-09-21T15:51:40;16.40;;;14.90;;
5117;SDS011;2578;51.622;7.046;2022-09-21T15:54:28;16.30;;;14.80;;
5117;SDS011;2578;51.622;7.046;2022-09-21T15:56:58;16.30;;;14.80;;
5117;SDS011;2578;51.622;7.046;2022-09-21T15:59:27;15.53;;;14.13;;
5117;SDS011;2578;51.622;7.046;2022-09-21T16:01:56;15.40;;;14.00;;
5117;SDS011;2578;51.622;7.046;2022-09-21T16:04:25;16.30;;;14.80;;
5117;SDS011;2578;51.622;7.046;2022-09-21T16:09:35;16.10;;;14.60;;
5117;SDS011;2578;51.622;7.046;2022-09-21T16:12:22;17.10;;;15.50;;
5117;SDS011;2578;51.622;7.046;2022-09-21T16:14:58;18.10;;;16.40;;
5117;SDS011;2578;51.622;7.046;2022-09-21T16:17:26;17.70;;;16.00;;
5117;SDS011;2578;51.622;7.046;2022-09-21T16:22:20;19.00;;;17.20;;
5117;SDS011;2578;51.622;7.046;2022-09-21T16:24:48;19.90;;;18.00;;
5117;SDS011;2578;51.622;7.046;2022-09-21T16:27:17;20.50;;;18.60;;
5117;SDS011;2578;51.622;7.046;2022-09-21T16:29:44;19.40;;;17.60;;
5117;SDS011;2578;51.622;7.046;2022-09-21T16:34:39;19.60;;;17.80;;
5117;SDS011;2578;51.622;7.046;2022-09-21T16:37:19;20.10;;;18.30;;
5117;SDS011;2578;51.622;7.046;2022-09-21T16:39:49;18.90;;;17.20;;
5117;SDS011;2578;51.622;7.046;2022-09-21T16:42:16;18.20;;;16.50;;
5117;SDS011;2578;51.622;7.046;2022-09-21T16:44:43;17.97;;;16.30;;
5117;SDS011;2578;51.622;7.046;2022-09-21T16:47:14;17.90;;;16.20;;
5117;SDS011;2578;51.622;7.046;2022-09-21T16:49:45;16.47;;;14.90;;
5117;SDS011;2578;51.622;7.046;2022-09-21T16:52:11;16.43;;;14.83;;
5117;SDS011;2578;51.622;7.046;2022-09-21T16:54:36;15.40;;;13.90;;
5117;SDS011;2578;51.622;7.046;2022-09-21T16:57:03;14.50;;;13.10;;
5117;SDS011;2578;51.622;7.046;2022-09-21T16:59:30;13.90;;;12.50;;
5117;SDS011;2578;51.622;7.046;2022-09-21T17:01:57;13.97;;;12.57;;
5117;SDS011;2578;51.622;7.046;2022-09-21T17:04:27;12.93;;;11.63;;
5117;SDS011;2578;51.622;7.046;2022-09-21T17:06:55;12.10;;;10.80;;
5117;SDS011;2578;51.622;7.046;2022-09-21T17:09:25;11.27;;;9.30;;
5117;SDS011;2578;51.622;7.046;2022-09-21T17:11:56;10.97;;;8.83;;
5117;SDS011;2578;51.622;7.046;2022-09-21T17:14:29;10.80;;;8.50;;
5117;SDS011;2578;51.622;7.046;2022-09-21T17:17:00;10.43;;;8.10;;
5117;SDS011;2578;51.622;7.046;2022-09-21T17:19:33;10.23;;;7.93;;
5117;SDS011;2578;51.622;7.046;2022-09-21T17:21:59;10.03;;;7.70;;
5117;SDS011;2578;51.622;7.046;2022-09-21T17:24:31;9.93;;;7.30;;
5117;SDS011;2578;51.622;7.046;2022-09-21T17:26:57;9.77;;;7.10;;
5117;SDS011;2578;51.622;7.046;2022-09-21T17:29:24;9.40;;;6.20;;
5117;SDS011;2578;51.622;7.046;2022-09-21T17:31:55;9.37;;;6.10;;
5117;SDS011;2578;51.622;7.046;2022-09-21T17:34:25;9.17;;;5.50;;
5117;SDS011;2578;51.622;7.046;2022-09-21T17:36:52;8.83;;;4.60;;
5117;SDS011;2578;51.622;7.046;2022-09-21T17:39:19;8.77;;;4.40;;
5117;SDS011;2578;51.622;7.046;2022-09-21T17:41:50;8.73;;;3.80;;
5117;SDS011;2578;51.622;7.046;2022-09-21T17:47:19;8.30;;;2.80;;
5117;SDS011;2578;51.622;7.046;2022-09-21T17:49:48;8.27;;;2.60;;
5117;SDS011;2578;51.622;7.046;2022-09-21T17:52:21;8.00;;;2.40;;
5117;SDS011;2578;51.622;7.046;2022-09-21T17:55:07;7.90;;;2.10;;
5117;SDS011;2578;51.622;7.046;2022-09-21T17:57:39;7.73;;;1.90;;
5117;SDS011;2578;51.622;7.046;2022-09-21T18:00:18;7.63;;;1.77;;
5117;SDS011;2578;51.622;7.046;2022-09-21T18:02:47;7.53;;;1.70;;
5117;SDS011;2578;51.622;7.046;2022-09-21T18:05:14;7.50;;;1.60;;
5117;SDS011;2578;51.622;7.046;2022-09-21T18:07:47;7.43;;;1.57;;
5117;SDS011;2578;51.622;7.046;2022-09-21T18:10:14;7.50;;;1.50;;
5117;SDS011;2578;51.622;7.046;2022-09-21T18:23:18;7.70;;;1.30;;
5117;SDS011;2578;51.622;7.046;2022-09-21T18:25:50;7.67;;;1.30;;
5117;SDS011;2578;51.622;7.046;2022-09-21T18:28:22;7.80;;;1.20;;
5117;SDS011;2578;51.622;7.046;2022-09-21T18:34:07;7.90;;;1.20;;
5117;SDS011;2578;51.622;7.046;2022-09-21T18:39:19;7.93;;;1.20;;
5117;SDS011;2578;51.622;7.046;2022-09-21T18:42:09;7.93;;;1.20;;
5117;SDS011;2578;51.622;7.046;2022-09-21T18:44:57;7.87;;;1.30;;
5117;SDS011;2578;51.622;7.046;2022-09-21T18:47:46;7.83;;;1.20;;
5117;SDS011;2578;51.622;7.046;2022-09-21T18:55:50;7.77;;;1.20;;
5117;SDS011;2578;51.622;7.046;2022-09-21T18:58:16;7.87;;;1.30;;
5117;SDS011;2578;51.622;7.046;2022-09-21T19:00:43;8.00;;;1.30;;
5117;SDS011;2578;51.622;7.046;2022-09-21T19:03:12;7.93;;;1.20;;
5117;SDS011;2578;51.622;7.046;2022-09-21T19:11:15;7.57;;;1.10;;
5117;SDS011;2578;51.622;7.046;2022-09-21T19:13:57;7.60;;;1.20;;
5117;SDS011;2578;51.622;7.046;2022-09-21T19:16:50;7.67;;;1.20;;
5117;SDS011;2578;51.622;7.046;2022-09-21T19:19:26;7.70;;;1.20;;
5117;SDS011;2578;51.622;7.046;2022-09-21T19:27:42;7.67;;;1.30;;
5117;SDS011;2578;51.622;7.046;2022-09-21T19:30:11;7.77;;;1.10;;
5117;SDS011;2578;51.622;7.046;2022-09-21T19:32:43;7.73;;;1.20;;